createdAt,value
2017-11-19T00:00:20.562Z,9.81
2017-11-19T00:01:30.644Z,9.74
2017-11-19T00:02:40.738Z,9.66
2017-11-19T00:03:50.551Z,9.67
2017-11-19T00:05:00.661Z,9.7
2017-11-19T00:06:10.507Z,9.6
2017-11-19T00:07:20.609Z,9.7
2017-11-19T00:08:30.760Z,9.55
2017-11-19T00:09:40.870Z,9.62
2017-11-19T00:10:50.691Z,9.66
2017-11-19T00:12:00.216Z,9.57
2017-11-19T00:13:10.029Z,9.53
2017-11-19T00:14:20.773Z,9.67
2017-11-19T00:15:30.847Z,9.48
2017-11-19T00:16:40.934Z,9.56
2017-11-19T00:17:51.033Z,9.6
2017-11-19T00:19:00.851Z,9.56
2017-11-19T00:20:10.664Z,9.56
2017-11-19T00:21:20.477Z,9.59
2017-11-19T00:22:30.330Z,9.55
2017-11-19T00:23:40.157Z,9.5
2017-11-19T00:24:49.715Z,9.53
2017-11-19T00:25:59.588Z,9.55
2017-11-19T00:27:09.677Z,9.55
2017-11-19T00:28:19.789Z,9.52
2017-11-19T00:29:29.856Z,9.42
2017-11-19T00:30:39.672Z,9.48
2017-11-19T00:31:49.829Z,9.52
2017-11-19T00:32:59.653Z,9.48
2017-11-19T00:34:09.476Z,9.47
2017-11-19T00:35:19.554Z,9.53
2017-11-19T00:36:29.654Z,9.48
2017-11-19T00:37:39.195Z,9.55
2017-11-19T00:38:49.006Z,9.55
2017-11-19T00:39:58.823Z,9.48
2017-11-19T00:41:08.929Z,9.52
2017-11-19T00:42:18.736Z,9.48
2017-11-19T00:43:28.580Z,9.53
2017-11-19T00:44:38.675Z,9.47
2017-11-19T00:45:48.472Z,9.47
2017-11-19T00:46:58.552Z,9.48
2017-11-19T00:48:08.648Z,9.47
2017-11-19T00:49:19.007Z,9.41
2017-11-19T00:50:28.573Z,9.37
2017-11-19T00:51:38.115Z,9.44
2017-11-19T00:52:48.191Z,9.27
2017-11-19T00:53:58.030Z,9.29
2017-11-19T00:55:08.113Z,9.35
2017-11-19T00:56:18.206Z,9.38
2017-11-19T00:57:28.289Z,9.34
2017-11-19T00:58:37.856Z,9.39
2017-11-19T00:59:47.970Z,9.37
2017-11-19T01:00:58.046Z,9.35
2017-11-19T01:02:08.136Z,9.27
2017-11-19T01:03:18.213Z,9.3
2017-11-19T01:04:42.756Z,9.29
2017-11-19T01:05:52.573Z,9.35
2017-11-19T01:07:02.119Z,9.38
2017-11-19T01:08:11.686Z,9.38
2017-11-19T01:09:21.780Z,9.42
2017-11-19T01:10:31.920Z,9.35
2017-11-19T01:11:41.745Z,9.37
2017-11-19T01:12:51.304Z,9.37
2017-11-19T01:14:01.161Z,9.29
2017-11-19T01:15:11.245Z,9.29
2017-11-19T01:16:21.319Z,9.24
2017-11-19T01:17:31.141Z,9.37
2017-11-19T01:18:41.231Z,9.39
2017-11-19T01:19:51.062Z,9.42
2017-11-19T01:21:01.153Z,9.37
2017-11-19T01:22:11.225Z,9.29
2017-11-19T01:23:21.048Z,9.37
2017-11-19T01:24:30.609Z,9.21
2017-11-19T01:25:40.695Z,9.27
2017-11-19T01:26:50.530Z,9.24
2017-11-19T01:28:00.609Z,9.29
2017-11-19T01:29:10.701Z,9.32
2017-11-19T01:30:20.514Z,9.29
2017-11-19T01:31:30.321Z,9.24
2017-11-19T01:32:40.407Z,9.26
2017-11-19T01:33:50.481Z,9.29
2017-11-19T01:35:00.047Z,9.24
2017-11-19T01:36:09.856Z,9.32
2017-11-19T01:37:19.414Z,9.29
2017-11-19T01:38:29.525Z,9.27
2017-11-19T01:39:39.327Z,9.32
2017-11-19T01:40:49.395Z,9.26
2017-11-19T01:41:59.450Z,9.24
2017-11-19T01:43:09.529Z,9.26
2017-11-19T01:44:19.328Z,9.29
2017-11-19T01:45:29.431Z,9.26
2017-11-19T01:46:39.100Z,9.21
2017-11-19T01:47:48.911Z,9.19
2017-11-19T01:48:58.987Z,9.34
2017-11-19T01:50:09.088Z,9.19
2017-11-19T01:51:19.159Z,9.27
2017-11-19T01:52:28.971Z,9.3
2017-11-19T01:53:39.066Z,9.32
2017-11-19T01:54:48.616Z,9.37
2017-11-19T01:55:58.703Z,9.32
2017-11-19T01:57:08.767Z,9.24
2017-11-19T01:58:18.843Z,9.24
2017-11-19T01:59:28.918Z,9.26
2017-11-19T02:00:38.746Z,9.32
2017-11-19T02:01:48.555Z,9.3
2017-11-19T02:02:58.793Z,9.29
2017-11-19T02:04:08.863Z,9.27
2017-11-19T02:05:20.054Z,9.38
2017-11-19T02:06:31.169Z,9.3
2017-11-19T02:07:40.994Z,9.34
2017-11-19T02:08:51.075Z,9.32
2017-11-19T02:10:01.154Z,9.26
2017-11-19T02:11:11.226Z,9.3
2017-11-19T02:12:21.312Z,9.29
2017-11-19T02:13:30.865Z,9.23
2017-11-19T02:14:40.998Z,9.27
2017-11-19T02:15:51.934Z,9.21
2017-11-19T02:17:02.018Z,9.27
2017-11-19T02:18:11.545Z,9.21
2017-11-19T02:19:21.356Z,9.2
2017-11-19T02:20:31.492Z,9.23
2017-11-19T02:21:41.626Z,9.21
2017-11-19T02:22:51.691Z,9.2
2017-11-19T02:24:01.765Z,9.17
2017-11-19T02:25:11.568Z,9.19
2017-11-19T02:26:21.697Z,9.12
2017-11-19T02:27:31.515Z,9.14
2017-11-19T02:28:41.332Z,9.09
2017-11-19T02:29:51.171Z,9.2
2017-11-19T02:31:00.726Z,9.12
2017-11-19T02:32:10.523Z,9.04
2017-11-19T02:33:20.589Z,9.04
2017-11-19T02:34:30.684Z,9.14
2017-11-19T02:35:40.809Z,9.19
2017-11-19T02:36:50.925Z,9.08
2017-11-19T02:38:00.774Z,9.19
2017-11-19T02:39:10.334Z,9.14
2017-11-19T02:40:20.133Z,8.94
2017-11-19T02:41:29.950Z,9.11
2017-11-19T02:42:39.806Z,9.09
2017-11-19T02:43:49.905Z,9.12
2017-11-19T02:44:59.707Z,9.05
2017-11-19T02:46:09.797Z,9.04
2017-11-19T02:47:19.859Z,9.03
2017-11-19T02:48:29.391Z,9.11
2017-11-19T02:49:39.477Z,9.04
2017-11-19T02:50:49.025Z,9
2017-11-19T02:51:58.846Z,9.11
2017-11-19T02:53:08.937Z,9
2017-11-19T02:54:19.026Z,9.04
2017-11-19T02:55:29.119Z,9.03
2017-11-19T02:56:39.207Z,9.08
2017-11-19T02:57:49.047Z,8.97
2017-11-19T02:58:59.120Z,8.95
2017-11-19T03:00:09.245Z,8.98
2017-11-19T03:01:20.485Z,8.92
2017-11-19T03:02:30.299Z,8.97
2017-11-19T03:33:47.215Z,6.79
2017-11-19T03:34:57.297Z,6.75
2017-11-19T03:36:07.387Z,6.78
2017-11-19T03:37:17.451Z,6.8
2017-11-19T03:38:27.252Z,6.95
2017-11-19T03:39:37.345Z,7.05
2017-11-19T03:40:46.876Z,7.12
2017-11-19T03:41:56.951Z,7.29
2017-11-19T03:43:07.045Z,7.37
2017-11-19T03:44:17.105Z,7.51
2017-11-19T03:45:27.256Z,7.74
2017-11-19T03:46:36.803Z,7.92
2017-11-19T03:47:46.351Z,7.98
2017-11-19T03:48:56.440Z,8.07
2017-11-19T03:50:06.239Z,8.24
2017-11-19T03:51:16.145Z,8.39
2017-11-19T03:52:26.216Z,8.49
2017-11-19T03:53:36.299Z,8.44
2017-11-19T03:54:46.376Z,8.54
2017-11-19T03:55:56.447Z,8.71
2017-11-19T03:57:06.255Z,8.82
2017-11-19T03:58:16.073Z,8.8
2017-11-19T03:59:25.888Z,8.94
2017-11-19T04:00:35.971Z,9.03
2017-11-19T04:01:46.057Z,9.16
2017-11-19T04:02:56.148Z,9.12
2017-11-19T04:04:05.952Z,9.21
2017-11-19T04:05:16.032Z,9.23
2017-11-19T04:06:26.106Z,9.24
2017-11-19T04:07:36.199Z,9.26
2017-11-19T04:08:46.282Z,9.23
2017-11-19T04:09:56.355Z,9.35
2017-11-19T04:11:06.178Z,9.27
2017-11-19T04:12:16.260Z,9.38
2017-11-19T04:13:26.075Z,9.38
2017-11-19T04:14:35.351Z,9.41
2017-11-19T04:15:45.426Z,9.48
2017-11-19T04:16:55.498Z,9.52
2017-11-19T04:18:05.572Z,9.48
2017-11-19T04:19:15.653Z,9.56
2017-11-19T04:20:25.792Z,9.59
2017-11-19T04:21:35.882Z,9.6
2017-11-19T04:22:45.968Z,9.63
2017-11-19T04:23:55.520Z,9.55
2017-11-19T04:25:05.609Z,9.66
2017-11-19T04:26:15.698Z,9.6
2017-11-19T04:27:25.770Z,9.66
2017-11-19T04:28:35.580Z,9.59
2017-11-19T04:29:45.662Z,9.63
2017-11-19T04:30:55.735Z,9.7
2017-11-19T04:32:05.272Z,9.8
2017-11-19T04:33:15.084Z,9.75
2017-11-19T04:34:25.161Z,9.88
2017-11-19T04:35:34.972Z,9.74
2017-11-19T04:36:44.778Z,9.89
2017-11-19T04:37:54.426Z,9.84
2017-11-19T04:39:04.521Z,9.88
2017-11-19T04:40:14.605Z,9.85
2017-11-19T04:41:24.696Z,9.8
2017-11-19T04:42:34.776Z,9.89
2017-11-19T04:43:44.408Z,9.81
2017-11-19T04:44:54.239Z,9.89
2017-11-19T04:46:04.316Z,9.82
2017-11-19T04:47:14.411Z,9.85
2017-11-19T04:48:24.209Z,9.82
2017-11-19T04:49:34.345Z,9.82
2017-11-19T04:50:44.165Z,9.81
2017-11-19T04:51:54.255Z,9.88
2017-11-19T04:53:04.328Z,9.84
2017-11-19T04:54:14.412Z,9.82
2017-11-19T04:55:24.228Z,9.84
2017-11-19T04:56:34.314Z,9.84
2017-11-19T04:57:44.413Z,9.9
2017-11-19T04:58:54.228Z,9.88
2017-11-19T05:00:04.057Z,9.96
2017-11-19T05:01:14.142Z,9.98
2017-11-19T05:02:24.229Z,9.96
2017-11-19T05:03:34.048Z,9.92
2017-11-19T05:04:44.138Z,10.02
2017-11-19T05:05:53.945Z,10.07
2017-11-19T05:07:04.018Z,9.93
2017-11-19T05:08:13.900Z,9.96
2017-11-19T05:09:23.987Z,9.93
2017-11-19T05:10:33.795Z,9.95
2017-11-19T05:11:43.586Z,9.88
2017-11-19T05:12:53.403Z,9.85
2017-11-19T05:14:03.515Z,9.84
2017-11-19T05:15:13.588Z,9.95
2017-11-19T05:16:23.159Z,9.84
2017-11-19T05:17:33.236Z,9.85
2017-11-19T05:18:42.841Z,9.96
2017-11-19T05:19:52.937Z,9.92
2017-11-19T05:21:03.021Z,9.85
2017-11-19T05:22:12.850Z,9.92
2017-11-19T05:23:22.391Z,9.85
2017-11-19T05:24:32.241Z,9.93
2017-11-19T05:25:42.064Z,9.92
2017-11-19T05:26:52.155Z,9.85
2017-11-19T05:28:01.701Z,9.92
2017-11-19T05:29:11.508Z,9.92
2017-11-19T05:30:21.652Z,9.82
2017-11-19T05:31:31.743Z,9.85
2017-11-19T05:32:41.549Z,9.92
2017-11-19T05:33:51.359Z,9.82
2017-11-19T05:35:01.182Z,9.93
2017-11-19T05:36:11.057Z,10.02
2017-11-19T05:37:21.125Z,9.98
2017-11-19T05:38:31.178Z,10
2017-11-19T05:39:41.261Z,9.98
2017-11-19T05:40:51.090Z,9.96
2017-11-19T05:42:00.902Z,9.93
2017-11-19T05:43:10.720Z,9.93
2017-11-19T05:44:20.802Z,9.95
2017-11-19T05:45:30.623Z,9.98
2017-11-19T05:46:40.705Z,9.99
2017-11-19T05:47:50.805Z,10.02
2017-11-19T05:49:00.606Z,10.05
2017-11-19T05:50:10.689Z,10.07
2017-11-19T05:51:20.503Z,9.99
2017-11-19T05:52:30.359Z,10.05
2017-11-19T05:53:40.190Z,10.03
2017-11-19T05:54:50.271Z,10.08
2017-11-19T05:55:59.826Z,10.08
2017-11-19T05:57:09.931Z,10.02
2017-11-19T05:58:20.018Z,10.05
2017-11-19T05:59:29.566Z,10.03
2017-11-19T06:00:39.142Z,9.99
2017-11-19T06:01:48.698Z,9.93
2017-11-19T06:02:58.798Z,9.99
2017-11-19T06:04:08.346Z,9.99
2017-11-19T06:05:18.151Z,10.11
2017-11-19T06:06:27.945Z,10.08
2017-11-19T06:07:38.033Z,10.11
2017-11-19T06:08:48.111Z,10.08
2017-11-19T06:09:57.974Z,10.03
2017-11-19T06:11:08.068Z,10.07
2017-11-19T06:12:18.207Z,9.99
2017-11-19T06:13:28.017Z,10.05
2017-11-19T06:14:37.822Z,9.96
2017-11-19T06:15:47.679Z,9.99
2017-11-19T06:16:56.952Z,10.02
2017-11-19T06:18:06.771Z,9.93
2017-11-19T06:19:16.596Z,9.99
2017-11-19T06:20:26.410Z,10
2017-11-19T06:21:36.280Z,9.93
2017-11-19T06:22:46.099Z,10.03
2017-11-19T06:23:56.198Z,9.98
2017-11-19T06:25:06.295Z,9.95
2017-11-19T06:26:16.373Z,9.93
2017-11-19T06:27:26.206Z,9.93
2017-11-19T06:28:36.298Z,10
2017-11-19T06:29:46.384Z,9.99
2017-11-19T06:30:56.470Z,10.02
2017-11-19T06:32:06.581Z,10
2017-11-19T06:33:16.721Z,9.98
2017-11-19T06:34:26.528Z,9.99
2017-11-19T06:35:36.603Z,10.08
2017-11-19T06:36:46.412Z,10
2017-11-19T06:37:56.256Z,9.99
2017-11-19T06:39:05.537Z,10.02
2017-11-19T06:40:15.355Z,9.99
2017-11-19T06:41:25.156Z,10
2017-11-19T06:42:35.231Z,9.9
2017-11-19T06:43:45.071Z,9.95
2017-11-19T06:44:55.150Z,9.99
2017-11-19T06:46:04.979Z,9.95
2017-11-19T06:47:14.781Z,10.07
2017-11-19T06:48:24.867Z,9.95
2017-11-19T06:49:34.700Z,10.05
2017-11-19T06:50:44.301Z,10.07
2017-11-19T06:51:54.386Z,10.05
2017-11-19T06:53:04.188Z,10.1
2017-11-19T06:54:14.261Z,10.13
2017-11-19T06:55:24.354Z,10.1
2017-11-19T06:56:34.195Z,10.1
2017-11-19T06:57:44.568Z,10.15
2017-11-19T06:58:54.644Z,9.96
2017-11-19T07:00:04.760Z,10.11
2017-11-19T07:01:14.317Z,10.08
2017-11-19T07:02:24.176Z,10.11
2017-11-19T07:03:34.250Z,10.11
2017-11-19T07:04:44.071Z,10.1
2017-11-19T07:05:54.158Z,10.1
2017-11-19T07:07:04.257Z,10.05
2017-11-19T07:08:14.125Z,10.11
2017-11-19T07:09:23.950Z,10.05
2017-11-19T07:10:34.060Z,10.07
2017-11-19T07:11:43.891Z,10.02
2017-11-19T07:12:53.734Z,10.1
2017-11-19T07:14:03.561Z,10.07
2017-11-19T07:15:13.395Z,10.08
2017-11-19T07:16:23.220Z,10.15
2017-11-19T07:17:33.081Z,10.15
2017-11-19T07:18:42.886Z,10.26
2017-11-19T07:19:52.978Z,10.28
2017-11-19T07:21:02.795Z,10.31
2017-11-19T07:22:12.601Z,10.32
2017-11-19T07:23:22.717Z,10.42
2017-11-19T07:24:32.280Z,10.35
2017-11-19T07:25:42.087Z,10.36
2017-11-19T07:26:51.901Z,10.42
2017-11-19T07:28:01.462Z,10.42
2017-11-19T07:29:11.293Z,10.44
2017-11-19T07:30:21.908Z,10.42
2017-11-19T07:31:31.993Z,10.36
2017-11-19T07:32:42.076Z,10.42
2017-11-19T07:33:51.632Z,10.41
2017-11-19T07:35:01.455Z,10.39
2017-11-19T07:36:11.310Z,10.36
2017-11-19T07:37:21.435Z,10.36
2017-11-19T07:38:30.728Z,10.39
2017-11-19T07:39:40.545Z,10.32
2017-11-19T07:40:50.375Z,10.41
2017-11-19T07:42:00.456Z,10.23
2017-11-19T07:43:09.996Z,10.23
2017-11-19T07:44:20.075Z,10.26
2017-11-19T07:45:30.172Z,10.11
2017-11-19T07:46:39.979Z,10.21
2017-11-19T07:47:49.519Z,10.21
2017-11-19T07:48:59.636Z,10.21
2017-11-19T07:50:09.465Z,10.26
2017-11-19T07:51:19.581Z,10.17
2017-11-19T07:52:29.397Z,10.21
2017-11-19T07:53:38.940Z,10.21
2017-11-19T07:54:48.744Z,10.29
2017-11-19T07:55:58.850Z,10.29
2017-11-19T07:57:08.934Z,10.25
2017-11-19T07:58:19.019Z,10.33
2017-11-19T07:59:29.110Z,10.36
2017-11-19T08:00:38.927Z,10.44
2017-11-19T08:01:48.753Z,10.42
2017-11-19T08:02:58.834Z,10.54
2017-11-19T08:04:08.667Z,10.52
2017-11-19T08:05:18.480Z,10.52
2017-11-19T08:06:28.578Z,10.55
2017-11-19T08:07:38.697Z,10.42
2017-11-19T08:08:48.530Z,10.44
2017-11-19T08:09:58.340Z,10.44
2017-11-19T08:11:08.436Z,10.36
2017-11-19T08:12:18.568Z,10.44
2017-11-19T08:13:28.426Z,10.41
2017-11-19T08:14:38.500Z,10.38
2017-11-19T08:15:48.594Z,10.47
2017-11-19T08:16:58.401Z,10.42
2017-11-19T08:18:08.543Z,10.42
2017-11-19T08:19:18.635Z,10.42
2017-11-19T08:20:28.720Z,10.41
2017-11-19T08:21:38.793Z,10.35
2017-11-19T08:22:48.909Z,10.35
2017-11-19T08:23:58.988Z,10.41
2017-11-19T08:25:09.108Z,10.25
2017-11-19T08:26:19.181Z,10.32
2017-11-19T08:27:29.347Z,10.23
2017-11-19T08:28:39.441Z,10.28
2017-11-19T08:29:49.269Z,10.29
2017-11-19T08:30:59.361Z,10.18
2017-11-19T08:32:09.607Z,10.14
2017-11-19T08:33:19.401Z,10.23
2017-11-19T08:34:29.492Z,10.14
2017-11-19T08:35:39.371Z,10.13
2017-11-19T08:36:49.195Z,10.13
2017-11-19T08:37:59.007Z,10.11
2017-11-19T08:39:08.824Z,10.11
2017-11-19T08:40:18.647Z,10.1
2017-11-19T08:41:28.820Z,9.96
2017-11-19T08:42:38.892Z,9.99
2017-11-19T08:43:48.976Z,10.03
2017-11-19T08:44:59.065Z,9.96
2017-11-19T08:46:09.170Z,9.95
2017-11-19T08:47:19.292Z,9.95
2017-11-19T08:48:29.397Z,9.85
2017-11-19T08:49:39.231Z,9.88
2017-11-19T08:50:49.335Z,9.88
2017-11-19T08:51:59.429Z,9.84
2017-11-19T08:53:09.585Z,9.81
2017-11-19T08:54:19.414Z,9.85
2017-11-19T08:55:28.690Z,9.82
2017-11-19T08:56:38.780Z,9.82
2017-11-19T08:57:48.593Z,9.8
2017-11-19T08:58:58.155Z,9.88
2017-11-19T09:00:08.237Z,9.88
2017-11-19T09:01:18.311Z,9.85
2017-11-19T09:02:28.399Z,9.93
2017-11-19T09:03:38.529Z,9.96
2017-11-19T09:04:47.871Z,10.1
2017-11-19T09:05:57.978Z,10.07
2017-11-19T09:07:08.071Z,10.03
2017-11-19T09:08:18.846Z,10.1
2017-11-19T09:09:28.708Z,10.1
2017-11-19T09:10:38.901Z,10.1
2017-11-19T09:11:48.779Z,10.14
2017-11-19T09:12:58.876Z,10.17
2017-11-19T09:14:08.962Z,10.1
2017-11-19T09:15:19.047Z,10.1
2017-11-19T09:16:29.168Z,10.1
2017-11-19T09:17:38.735Z,10.13
2017-11-19T09:18:48.275Z,10.21
2017-11-19T09:19:58.134Z,10.28
2017-11-19T09:21:07.941Z,10.35
2017-11-19T09:22:18.028Z,10.57
2017-11-19T09:23:28.112Z,10.65
2017-11-19T09:24:38.302Z,10.76
2017-11-19T09:25:48.397Z,10.8
2017-11-19T09:26:57.967Z,10.84
2017-11-19T09:28:07.665Z,10.79
2017-11-19T09:29:17.758Z,10.79
2017-11-19T09:30:27.836Z,10.85
2017-11-19T09:31:37.933Z,10.8
2017-11-19T09:32:47.741Z,10.77
2017-11-19T09:33:57.337Z,10.72
2017-11-19T09:35:07.177Z,10.65
2017-11-19T09:36:17.001Z,10.66
2017-11-19T09:37:27.100Z,10.58
2017-11-19T09:38:36.918Z,10.54
2017-11-19T09:39:46.742Z,10.38
2017-11-19T09:40:56.850Z,10.23
2017-11-19T09:42:06.939Z,10.18
2017-11-19T09:43:16.775Z,10.14
2017-11-19T09:44:26.876Z,10.11
2017-11-19T09:45:37.059Z,10
2017-11-19T09:46:47.154Z,10.11
2017-11-19T09:47:56.991Z,10.1
2017-11-19T09:49:07.099Z,10.18
2017-11-19T09:50:16.921Z,10.21
2017-11-19T09:51:26.752Z,10.32
2017-11-19T09:52:36.831Z,10.39
2017-11-19T09:53:46.921Z,10.54
2017-11-19T09:54:57.395Z,10.7
2017-11-19T09:56:06.938Z,10.9
2017-11-19T09:57:16.849Z,10.9
2017-11-19T09:58:26.944Z,10.94
2017-11-19T09:59:36.221Z,11.02
2017-11-19T10:00:46.091Z,11.1
2017-11-19T10:01:56.228Z,11.27
2017-11-19T10:03:06.116Z,11.2
2017-11-19T10:04:16.200Z,11.34
2017-11-19T10:05:26.092Z,11.38
2017-11-19T10:06:36.222Z,11.45
2017-11-19T10:07:46.077Z,11.52
2017-11-19T10:08:56.145Z,11.48
2017-11-19T10:10:06.233Z,11.39
2017-11-19T10:11:16.321Z,11.33
2017-11-19T10:12:26.405Z,11.27
2017-11-19T10:13:36.230Z,11.38
2017-11-19T10:14:46.307Z,11.26
2017-11-19T10:15:56.420Z,11.31
2017-11-19T10:17:06.271Z,11.24
2017-11-19T10:18:15.828Z,11.33
2017-11-19T10:19:25.599Z,11.34
2017-11-19T10:20:35.487Z,11.31
2017-11-19T10:21:45.327Z,11.42
2017-11-19T10:22:55.139Z,11.46
2017-11-19T10:24:05.229Z,11.57
2017-11-19T10:25:15.345Z,11.64
2017-11-19T10:26:25.488Z,11.64
2017-11-19T10:27:35.562Z,11.63
2017-11-19T10:28:45.640Z,11.67
2017-11-19T10:29:55.463Z,11.66
2017-11-19T10:31:05.280Z,11.71
2017-11-19T10:32:15.410Z,11.71
2017-11-19T10:33:25.494Z,11.82
2017-11-19T10:34:35.341Z,11.78
2017-11-19T10:35:45.171Z,11.71
2017-11-19T10:36:55.046Z,11.66
2017-11-19T10:38:05.152Z,11.67
2017-11-19T10:39:15.252Z,11.56
2017-11-19T10:40:25.081Z,11.46
2017-11-19T10:41:35.214Z,11.45
2017-11-19T10:42:45.303Z,11.45
2017-11-19T10:43:55.136Z,11.38
2017-11-19T10:45:04.690Z,11.34
2017-11-19T10:46:14.764Z,11.35
2017-11-19T10:47:24.874Z,11.39
2017-11-19T10:48:34.681Z,11.39
2017-11-19T10:49:44.777Z,11.23
2017-11-19T10:50:54.873Z,11.18
2017-11-19T10:52:04.984Z,11.23
2017-11-19T10:53:15.097Z,11.18
2017-11-19T10:54:24.899Z,11.13
2017-11-19T10:55:34.719Z,11.05
2017-11-19T10:56:44.792Z,11.03
2017-11-19T10:57:54.349Z,11.02
2017-11-19T10:59:04.431Z,11.03
2017-11-19T11:00:14.520Z,11
2017-11-19T11:01:24.587Z,11.05
2017-11-19T11:02:34.692Z,10.97
2017-11-19T11:03:45.627Z,11.05
2017-11-19T11:04:55.444Z,11.13
2017-11-19T11:06:05.581Z,11.1
2017-11-19T11:07:15.686Z,11.16
2017-11-19T11:08:25.803Z,11.27
2017-11-19T11:09:35.623Z,11.18
2017-11-19T11:10:45.180Z,11.18
2017-11-19T11:11:55.069Z,11.33
2017-11-19T11:13:05.158Z,11.43
2017-11-19T11:14:15.251Z,11.51
2017-11-19T11:15:25.329Z,11.51
2017-11-19T11:16:35.457Z,11.56
2017-11-19T11:17:45.273Z,11.51
2017-11-19T11:18:55.370Z,11.45
2017-11-19T11:20:05.467Z,11.56
2017-11-19T11:21:15.322Z,11.59
2017-11-19T11:22:25.435Z,11.42
2017-11-19T11:23:35.565Z,11.38
2017-11-19T11:24:45.657Z,11.42
2017-11-19T11:25:55.491Z,11.42
2017-11-19T11:27:05.061Z,11.33
2017-11-19T11:28:14.904Z,11.33
2017-11-19T11:29:24.714Z,11.27
2017-11-19T11:30:34.545Z,11.21
2017-11-19T11:31:44.652Z,11.2
2017-11-19T11:32:54.869Z,11.18
2017-11-19T11:34:06.123Z,11.2
2017-11-19T11:35:16.226Z,11.2
2017-11-19T11:36:26.061Z,11.16
2017-11-19T11:37:35.902Z,10.94
2017-11-19T11:38:45.725Z,10.94
2017-11-19T11:39:55.541Z,10.85
2017-11-19T11:41:05.688Z,10.84
2017-11-19T11:42:15.521Z,10.79
2017-11-19T11:43:25.594Z,10.73
2017-11-19T11:44:35.422Z,10.7
2017-11-19T11:45:45.527Z,10.7
2017-11-19T11:46:55.344Z,10.69
2017-11-19T11:48:05.428Z,10.76
2017-11-19T11:49:15.269Z,10.69
2017-11-19T11:50:25.117Z,10.61
2017-11-19T11:51:34.678Z,10.79
2017-11-19T11:52:44.818Z,10.88
2017-11-19T11:53:54.692Z,10.87
2017-11-19T11:55:04.768Z,10.8
2017-11-19T11:56:14.576Z,10.91
2017-11-19T11:57:24.656Z,10.9
2017-11-19T11:58:34.203Z,10.84
2017-11-19T11:59:44.275Z,10.87
2017-11-19T12:00:54.392Z,10.83
2017-11-19T12:02:04.241Z,10.8
2017-11-19T12:03:14.373Z,10.79
2017-11-19T12:04:24.233Z,10.75
2017-11-19T12:05:34.066Z,10.75
2017-11-19T12:06:44.163Z,10.7
2017-11-19T12:07:53.745Z,10.69
2017-11-19T12:09:03.293Z,10.63
2017-11-19T12:10:13.410Z,10.66
2017-11-19T12:11:23.259Z,10.46
2017-11-19T12:12:32.820Z,10.36
2017-11-19T12:13:42.368Z,10.29
2017-11-19T12:14:52.442Z,10.14
2017-11-19T12:16:02.571Z,10.08
2017-11-19T12:17:12.683Z,10.08
2017-11-19T12:18:22.230Z,10.07
2017-11-19T12:19:32.057Z,9.96
2017-11-19T12:20:42.167Z,9.85
2017-11-19T12:21:51.985Z,9.89
2017-11-19T12:23:01.854Z,9.85
2017-11-19T12:24:11.999Z,9.84
2017-11-19T12:25:21.814Z,9.98
2017-11-19T12:26:31.371Z,10.25
2017-11-19T12:27:41.505Z,10.44
2017-11-19T12:28:51.650Z,10.57
2017-11-19T12:30:01.772Z,10.46
2017-11-19T12:31:11.872Z,10.44
2017-11-19T12:32:22.014Z,10.41
2017-11-19T12:33:32.133Z,10.46
2017-11-19T12:34:41.962Z,10.29
2017-11-19T12:35:52.062Z,10.17
2017-11-19T12:37:01.872Z,9.99
2017-11-19T12:38:12.038Z,9.95
2017-11-19T12:39:21.845Z,9.8
2017-11-19T12:40:31.682Z,9.89
2017-11-19T12:41:41.491Z,9.66
2017-11-19T12:42:51.322Z,9.6
2017-11-19T12:44:01.128Z,9.55
2017-11-19T12:45:11.235Z,9.52
2017-11-19T12:46:21.383Z,9.44
2017-11-19T12:47:31.273Z,9.38
2017-11-19T12:48:41.348Z,9.23
2017-11-19T12:49:51.433Z,9.17
2017-11-19T12:51:01.574Z,9.11
2017-11-19T12:52:11.686Z,9.01
2017-11-19T12:53:21.510Z,8.9
2017-11-19T12:54:31.575Z,8.95
2017-11-19T12:55:41.147Z,8.8
2017-11-19T12:56:50.972Z,8.82
2017-11-19T12:58:01.059Z,8.86
2017-11-19T12:59:11.127Z,8.85
2017-11-19T13:00:20.947Z,8.76
2017-11-19T13:01:31.034Z,8.68
2017-11-19T13:02:41.117Z,8.67
2017-11-19T13:03:50.937Z,8.6
2017-11-19T13:05:01.083Z,8.6
2017-11-19T13:06:11.175Z,8.57
2017-11-19T13:07:20.997Z,8.54
2017-11-19T13:08:30.628Z,8.6
2017-11-19T13:09:40.716Z,8.68
2017-11-19T13:10:50.823Z,8.62
2017-11-19T13:12:00.931Z,8.74
2017-11-19T13:13:10.761Z,8.6
2017-11-19T13:14:20.591Z,8.62
2017-11-19T13:15:30.405Z,8.54
2017-11-19T13:16:40.490Z,8.58
2017-11-19T13:17:50.582Z,8.53
2017-11-19T13:19:00.680Z,8.62
2017-11-19T13:20:10.845Z,8.69
2017-11-19T13:21:20.711Z,8.71
2017-11-19T13:22:30.885Z,8.69
2017-11-19T13:23:40.732Z,8.72
2017-11-19T13:24:50.601Z,8.68
2017-11-19T13:26:00.148Z,8.72
2017-11-19T13:27:10.247Z,8.69
2017-11-19T13:28:20.371Z,8.74
2017-11-19T13:29:30.486Z,8.69
2017-11-19T13:30:40.579Z,8.68
2017-11-19T13:31:50.400Z,8.79
2017-11-19T13:33:00.594Z,9.08
2017-11-19T13:34:10.682Z,9.2
2017-11-19T13:35:20.221Z,9.26
2017-11-19T13:36:30.329Z,9.27
2017-11-19T13:37:40.405Z,9.21
2017-11-19T13:38:50.497Z,9.17
2017-11-19T13:40:00.313Z,9.11
2017-11-19T13:41:10.147Z,9.05
2017-11-19T13:42:20.231Z,9.08
2017-11-19T13:43:30.041Z,9.11
2017-11-19T13:44:40.114Z,9.16
2017-11-19T13:45:50.226Z,9.09
2017-11-19T13:47:00.049Z,9.2
2017-11-19T13:48:09.892Z,9.12
2017-11-19T13:49:20.021Z,9.17
2017-11-19T13:50:30.102Z,9.3
2017-11-19T13:51:39.658Z,9.29
2017-11-19T13:52:49.742Z,9.3
2017-11-19T13:53:59.821Z,9.34
2017-11-19T13:55:09.990Z,9.34
2017-11-19T13:56:19.809Z,9.2
2017-11-19T13:57:29.636Z,9.12
2017-11-19T13:58:39.209Z,9.19
2017-11-19T13:59:49.292Z,9.17
2017-11-19T14:00:59.386Z,9.08
2017-11-19T14:02:08.952Z,9.01
2017-11-19T14:03:19.030Z,9.01
2017-11-19T14:04:28.846Z,9.14
2017-11-19T14:05:38.659Z,9.19
2017-11-19T14:06:48.294Z,9.21
2017-11-19T14:07:58.336Z,9.3
2017-11-19T14:09:08.452Z,9.19
2017-11-19T14:10:18.544Z,9.12
2017-11-19T14:11:28.685Z,8.94
2017-11-19T14:12:38.281Z,8.8
2017-11-19T14:13:48.084Z,8.76
2017-11-19T14:14:57.374Z,8.71
2017-11-19T14:16:07.490Z,8.54
2017-11-19T14:17:17.602Z,8.61
2017-11-19T14:18:27.755Z,8.5
2017-11-19T14:19:37.843Z,8.43
2017-11-19T14:20:47.976Z,8.43
2017-11-19T14:21:58.076Z,8.36
2017-11-19T14:23:08.172Z,8.39
2017-11-19T14:24:18.319Z,8.35
2017-11-19T14:25:28.438Z,8.34
2017-11-19T14:26:38.265Z,8.16
2017-11-19T14:27:48.080Z,8.22
2017-11-19T14:28:57.905Z,8.21
2017-11-19T14:30:07.507Z,8.19
2017-11-19T14:31:17.590Z,8.13
2017-11-19T14:32:27.676Z,8.24
2017-11-19T14:33:37.769Z,8.25
2017-11-19T14:34:47.630Z,8.19
2017-11-19T14:35:57.726Z,8.17
2017-11-19T14:37:07.552Z,8.19
2017-11-19T14:38:17.372Z,8.19
2017-11-19T14:39:26.903Z,7.99
2017-11-19T14:40:36.214Z,8.09
2017-11-19T14:41:45.885Z,8.1
2017-11-19T14:42:55.963Z,8.09
2017-11-19T14:44:06.077Z,8.1
2017-11-19T14:45:15.893Z,8.06
2017-11-19T14:46:26.009Z,8.06
2017-11-19T14:47:35.630Z,7.98
2017-11-19T14:48:45.462Z,7.95
2017-11-19T14:49:55.285Z,7.92
2017-11-19T14:51:05.630Z,7.96
2017-11-19T14:52:15.753Z,7.93
2017-11-19T14:53:25.348Z,7.91
2017-11-19T14:54:35.162Z,7.95
2017-11-19T14:55:45.695Z,7.93
2017-11-19T14:56:55.584Z,7.86
2017-11-19T14:58:05.150Z,7.78
2017-11-19T14:59:14.486Z,7.88
2017-11-19T15:00:24.564Z,7.74
2017-11-19T15:01:34.669Z,7.77
2017-11-19T15:02:44.477Z,7.71
2017-11-19T15:03:54.575Z,7.71
2017-11-19T15:05:04.895Z,7.71
2017-11-19T15:06:14.986Z,7.64
2017-11-19T15:07:24.564Z,7.64
2017-11-19T15:08:34.684Z,7.64
2017-11-19T15:09:44.251Z,7.59
2017-11-19T15:10:54.393Z,7.56
2017-11-19T15:12:04.493Z,7.63
2017-11-19T15:13:14.367Z,7.58
2017-11-19T15:14:24.217Z,7.55
2017-11-19T15:15:33.829Z,7.55
2017-11-19T15:16:46.660Z,7.54
2017-11-19T15:17:59.175Z,7.54
2017-11-19T15:19:12.207Z,7.52
2017-11-19T15:20:24.910Z,7.58
2017-11-19T15:21:38.063Z,7.45
2017-11-19T15:22:52.525Z,7.49
2017-11-19T15:24:06.576Z,7.51
2017-11-19T15:25:21.688Z,7.47
2017-11-19T15:26:35.200Z,7.54
2017-11-19T15:27:50.544Z,7.48
2017-11-19T15:29:04.535Z,7.54
2017-11-19T15:30:19.383Z,7.47
2017-11-19T15:31:34.232Z,7.52
2017-11-19T15:32:50.027Z,7.54
2017-11-19T15:34:04.487Z,7.49
2017-11-19T15:35:19.290Z,7.55
2017-11-19T15:36:33.200Z,7.54
2017-11-19T15:37:47.289Z,7.56
2017-11-19T15:38:58.733Z,7.55
2017-11-19T15:40:11.746Z,7.68
2017-11-19T15:41:24.673Z,7.58
2017-11-19T15:42:38.535Z,7.67
2017-11-19T15:43:53.224Z,7.71
2017-11-19T15:45:07.262Z,7.78
2017-11-19T15:46:20.824Z,7.83
2017-11-19T15:47:35.008Z,7.85
2017-11-19T15:48:48.819Z,7.92
2017-11-19T15:50:03.872Z,7.93
2017-11-19T15:51:17.701Z,7.99
2017-11-19T15:52:31.420Z,8.04
2017-11-19T15:53:45.798Z,8.14
2017-11-19T15:54:59.110Z,8.16